createdAt,value
2023-04-28T00:01:29.675Z,8.25
2023-04-28T00:06:31.537Z,8.35
2023-04-28T00:11:33.409Z,8.45
2023-04-28T00:16:35.327Z,7.97
2023-04-28T00:21:37.180Z,7.50
2023-04-28T00:26:38.932Z,9.05
2023-04-28T00:31:41.111Z,7.55
2023-04-28T00:36:42.948Z,8.35
2023-04-28T00:41:44.715Z,7.10
2023-04-28T00:46:46.535Z,7.47
2023-04-28T00:51:48.472Z,7.32
2023-04-28T00:56:50.636Z,7.13
2023-04-28T01:01:52.654Z,7.70
2023-04-28T01:06:55.998Z,7.55
2023-04-28T01:11:58.503Z,7.90
2023-04-28T01:17:16.510Z,6.68
2023-04-28T01:22:18.838Z,7.60
2023-04-28T01:27:23.464Z,8.45
2023-04-28T01:32:25.274Z,7.47
2023-04-28T01:37:27.063Z,7.45
2023-04-28T01:42:29.094Z,8.57
2023-04-28T01:47:31.622Z,8.98
2023-04-28T01:52:33.459Z,7.88
2023-04-28T01:57:37.102Z,8.70
2023-04-28T02:02:39.790Z,8.98
2023-04-28T02:07:41.677Z,7.95
2023-04-28T02:12:43.456Z,7.82
2023-04-28T02:17:45.357Z,7.95
2023-04-28T02:22:47.275Z,8.55
2023-04-28T02:27:49.111Z,7.75
2023-04-28T02:32:51.482Z,8.23
2023-04-28T02:37:53.276Z,8.25
2023-04-28T02:42:55.128Z,7.55
2023-04-28T02:47:56.952Z,6.75
2023-04-28T02:52:58.738Z,7.68
2023-04-28T02:58:00.713Z,8.13
2023-04-28T03:03:02.826Z,7.32
2023-04-28T03:08:05.005Z,7.45
2023-04-28T03:13:07.248Z,7.20
2023-04-28T03:18:09.657Z,7.75
2023-04-28T03:23:11.641Z,8.07
2023-04-28T03:28:13.660Z,7.93
2023-04-28T03:33:15.562Z,7.65
2023-04-28T03:38:17.839Z,7.03
2023-04-28T03:43:19.952Z,7.32
2023-04-28T03:48:41.187Z,7.53
2023-04-28T03:53:43.118Z,7.38
2023-04-28T03:58:45.553Z,7.43
2023-04-28T04:03:47.494Z,6.68
2023-04-28T04:08:49.583Z,7.75
2023-04-28T04:13:51.382Z,6.47
2023-04-28T04:18:55.560Z,7.13
2023-04-28T04:24:16.740Z,6.97
2023-04-28T04:29:19.144Z,7.18
2023-04-28T04:34:21.209Z,6.93
2023-04-28T04:39:23.052Z,7.05
2023-04-28T04:44:27.524Z,6.85
2023-04-28T04:49:29.791Z,7.78
2023-04-28T04:54:31.856Z,7.03
2023-04-28T04:59:33.741Z,7.68
2023-04-28T05:04:42.403Z,7.78
2023-04-28T05:09:45.881Z,7.30
2023-04-28T05:14:47.789Z,7.55
2023-04-28T05:19:50.846Z,7.13
2023-04-28T05:24:53.526Z,7.07
2023-04-28T05:29:55.654Z,8.27
2023-04-28T05:34:57.513Z,7.65
2023-04-28T05:39:59.351Z,7.72
2023-04-28T05:45:01.179Z,7.53
2023-04-28T05:50:03.713Z,7.93
2023-04-28T05:55:06.051Z,7.63
2023-04-28T06:00:09.514Z,7.85
2023-04-28T06:05:14.567Z,7.57
2023-04-28T06:10:17.685Z,7.72
2023-04-28T06:15:19.659Z,7.43
2023-04-28T06:20:21.829Z,8.52
2023-04-28T06:25:24.268Z,6.97
2023-04-28T06:30:26.167Z,7.28
2023-04-28T06:35:29.869Z,7.63
2023-04-28T06:40:32.083Z,7.32
2023-04-28T06:45:36.069Z,7.80
2023-04-28T06:50:38.026Z,7.68
2023-04-28T06:55:42.614Z,7.75
2023-04-28T07:00:44.597Z,7.88
2023-04-28T07:05:46.561Z,7.45
2023-04-28T07:10:48.680Z,7.45
2023-04-28T07:15:50.520Z,7.13
2023-04-28T07:20:53.050Z,7.40
2023-04-28T07:25:55.233Z,7.57
2023-04-28T07:30:57.616Z,7.38
2023-04-28T07:35:59.562Z,6.45
2023-04-28T07:41:01.968Z,5.80
2023-04-28T07:46:03.850Z,6.15
2023-04-28T07:51:05.738Z,5.15
2023-04-28T07:56:07.697Z,5.50
2023-04-28T08:01:09.504Z,5.47
2023-04-28T08:06:11.313Z,5.03
2023-04-28T08:11:13.160Z,5.15
2023-04-28T08:16:15.563Z,5.40
2023-04-28T08:21:17.780Z,4.78
2023-04-28T08:26:19.788Z,4.88
2023-04-28T08:31:21.652Z,4.47
2023-04-28T08:36:25.224Z,3.90
2023-04-28T08:41:30.083Z,4.18
2023-04-28T08:46:33.548Z,4.63
2023-04-28T08:51:43.962Z,4.50
2023-04-28T09:01:51.133Z,4.28
2023-04-28T09:06:53.061Z,2.97
2023-04-28T09:12:02.655Z,3.38
2023-04-28T09:17:14.623Z,2.97
2023-04-28T09:22:26.119Z,3.63
2023-04-28T09:27:28.961Z,3.45
2023-04-28T09:32:31.177Z,2.85
2023-04-28T09:37:34.320Z,3.60
2023-04-28T09:43:02.397Z,3.78
2023-04-28T09:54:57.335Z,4.07
2023-04-28T09:59:59.784Z,3.58
2023-04-28T10:05:02.308Z,3.45
2023-04-28T10:10:05.574Z,3.30
2023-04-28T10:15:09.710Z,5.07
2023-04-28T10:20:12.010Z,4.60
2023-04-28T10:25:32.641Z,3.92
2023-04-28T10:30:35.299Z,3.88
2023-04-28T10:35:37.627Z,3.83
2023-04-28T10:40:45.103Z,4.00
2023-04-28T10:45:56.065Z,3.85
2023-04-28T10:51:04.724Z,4.50
2023-04-28T10:56:07.178Z,4.07
2023-04-28T11:01:25.183Z,4.32
2023-04-28T11:06:37.285Z,3.97
2023-04-28T11:11:40.615Z,4.55
2023-04-28T11:16:51.795Z,4.30
2023-04-28T11:21:56.669Z,3.80
2023-04-28T11:26:59.394Z,4.50
2023-04-28T11:32:01.491Z,5.00
2023-04-28T11:37:03.981Z,6.75
2023-04-28T11:42:12.081Z,5.15
2023-04-28T11:47:13.943Z,5.15
2023-04-28T11:52:15.685Z,5.00
2023-04-28T11:57:19.505Z,5.45
2023-04-28T12:02:29.535Z,5.20
2023-04-28T12:07:42.483Z,6.22
2023-04-28T12:12:51.856Z,5.07
2023-04-28T12:22:57.137Z,4.47
2023-04-28T12:28:08.470Z,6.22
2023-04-28T12:33:27.599Z,6.40
2023-04-28T12:38:30.060Z,7.28
2023-04-28T12:43:32.207Z,6.30
2023-04-28T12:48:34.988Z,6.78
2023-04-28T12:53:36.778Z,7.78
2023-04-28T12:58:38.602Z,7.45
2023-04-28T13:03:40.595Z,6.95
2023-04-28T13:08:43.094Z,7.47
2023-04-28T13:13:45.290Z,7.72
2023-04-28T13:18:49.040Z,7.88
2023-04-28T13:23:50.989Z,9.18
2023-04-28T13:28:52.930Z,8.07
2023-04-28T13:33:54.775Z,9.57
2023-04-28T13:38:56.768Z,8.55
2023-04-28T13:43:58.727Z,7.38
2023-04-28T13:49:00.573Z,7.50
2023-04-28T13:54:08.275Z,7.53
2023-04-28T13:59:10.127Z,7.22
2023-04-28T14:04:11.978Z,7.78
2023-04-28T14:09:14.145Z,8.10
2023-04-28T14:14:16.054Z,6.53
2023-04-28T14:19:18.707Z,7.30
2023-04-28T14:24:20.573Z,8.02
2023-04-28T14:29:22.372Z,8.25
2023-04-28T14:34:24.819Z,8.48
2023-04-28T14:39:26.615Z,8.32
2023-04-28T14:44:28.487Z,7.80
2023-04-28T14:49:30.802Z,8.50
2023-04-28T14:54:32.829Z,7.57
2023-04-28T14:59:35.647Z,7.18
2023-04-28T15:04:39.000Z,6.30
2023-04-28T15:09:40.930Z,6.13
2023-04-28T15:14:42.705Z,7.03
2023-04-28T15:19:44.560Z,7.30
2023-04-28T15:24:46.663Z,6.93
2023-04-28T15:29:48.689Z,6.78
2023-04-28T15:34:51.158Z,6.97
2023-04-28T15:39:53.192Z,6.47
2023-04-28T15:44:55.007Z,4.53
2023-04-28T15:50:01.222Z,4.03
2023-04-28T15:55:03.086Z,4.05
2023-04-28T16:00:06.853Z,3.88
2023-04-28T16:05:11.804Z,4.10
2023-04-28T16:10:16.109Z,3.60
2023-04-28T16:15:18.383Z,4.90
2023-04-28T16:20:20.166Z,3.90
2023-04-28T16:25:22.280Z,4.47
2023-04-28T16:30:24.276Z,4.65
2023-04-28T16:35:26.537Z,5.10
2023-04-28T16:40:28.897Z,4.55
2023-04-28T16:45:30.693Z,7.18
2023-04-28T16:50:33.128Z,5.25
2023-04-28T16:55:36.684Z,5.18
2023-04-28T17:00:39.541Z,4.75
2023-04-28T17:05:41.583Z,5.22
2023-04-28T17:10:43.398Z,4.75
2023-04-28T17:15:45.303Z,5.13
2023-04-28T17:20:48.202Z,5.35
2023-04-28T17:25:50.044Z,5.03
2023-04-28T17:30:53.002Z,5.45
2023-04-28T17:35:55.259Z,5.03
2023-04-28T17:40:57.393Z,5.18
2023-04-28T17:45:59.252Z,5.65
2023-04-28T17:51:01.296Z,5.85
2023-04-28T17:56:03.260Z,6.93
2023-04-28T18:01:06.719Z,6.63
2023-04-28T18:06:08.973Z,8.02
2023-04-28T18:11:11.232Z,8.70
2023-04-28T18:16:15.074Z,9.50
2023-04-28T18:21:17.093Z,9.23
2023-04-28T18:26:19.149Z,9.70
2023-04-28T18:31:21.257Z,8.18
2023-04-28T18:36:23.641Z,9.73
2023-04-28T18:41:25.464Z,10.00
2023-04-28T18:46:29.442Z,9.68
2023-04-28T18:51:31.404Z,9.73
2023-04-28T18:56:33.392Z,9.50
2023-04-28T19:01:35.500Z,8.95
2023-04-28T19:06:37.373Z,9.85
2023-04-28T19:11:39.253Z,10.35
2023-04-28T19:16:41.198Z,9.23
2023-04-28T19:21:44.614Z,8.38
2023-04-28T19:26:46.437Z,8.63
2023-04-28T19:31:49.084Z,8.68
2023-04-28T19:36:51.296Z,8.15
2023-04-28T19:41:54.589Z,8.23
2023-04-28T19:46:56.418Z,8.45
2023-04-28T19:51:58.567Z,7.75
2023-04-28T19:57:01.853Z,7.70
2023-04-28T20:02:07.817Z,7.47
2023-04-28T20:07:10.572Z,7.03
2023-04-28T20:12:12.563Z,5.82
2023-04-28T20:17:16.294Z,6.90
2023-04-28T20:22:18.163Z,6.90
2023-04-28T20:27:20.058Z,6.82
2023-04-28T20:32:23.640Z,6.40
2023-04-28T20:37:26.486Z,6.65
2023-04-28T20:42:28.821Z,6.72
2023-04-28T20:47:31.102Z,7.88
2023-04-28T20:52:33.606Z,7.80
2023-04-28T20:57:36.548Z,11.13
2023-04-28T21:02:41.712Z,8.05
2023-04-28T21:07:44.297Z,8.52
2023-04-28T21:12:46.724Z,8.23
2023-04-28T21:17:48.509Z,8.48
2023-04-28T21:22:50.295Z,9.05
2023-04-28T21:27:53.142Z,8.93
2023-04-28T21:32:55.521Z,8.57
2023-04-28T21:37:57.524Z,8.15
2023-04-28T21:42:59.510Z,8.63
2023-04-28T21:48:01.396Z,8.18
2023-04-28T21:53:03.626Z,8.88
2023-04-28T21:58:05.692Z,9.75
2023-04-28T22:03:07.790Z,11.45
2023-04-28T22:08:09.746Z,11.60
2023-04-28T22:13:12.836Z,12.40
2023-04-28T22:18:14.607Z,12.35
2023-04-28T22:23:16.677Z,12.88
2023-04-28T22:28:18.498Z,10.82
2023-04-28T22:33:20.394Z,11.75
2023-04-28T22:38:22.218Z,10.70
2023-04-28T22:43:23.995Z,12.02
2023-04-28T22:48:25.821Z,11.05
2023-04-28T22:53:27.734Z,11.68
2023-04-28T22:58:29.578Z,10.73
2023-04-28T23:03:31.672Z,11.48
2023-04-28T23:08:35.301Z,11.45
2023-04-28T23:13:37.297Z,11.38
2023-04-28T23:18:39.692Z,13.10
2023-04-28T23:23:41.475Z,12.55
2023-04-28T23:28:43.313Z,13.50
2023-04-28T23:33:45.316Z,13.20
2023-04-28T23:38:47.324Z,12.38
2023-04-28T23:43:49.302Z,13.60
2023-04-28T23:48:51.181Z,13.15
2023-04-28T23:53:53.048Z,14.70
2023-04-28T23:58:54.837Z,14.55
